Nearby METAR Reports

 

KFRG - , , USA
Distance from station: SSW 12mi, 20km
Updated: 12/07/2019 11:53am
Few Clouds
Few Clouds
 Wind from N
Wind: N 10 mph , 17 km/h
Temperature: 37°F , 3°C
Wind Chill: 30°F , -1°C
Dew Point: 18°F , -8°C
Humidity: 45%
Barometer: 30.34 inHg , 1027.4 hPa
Clouds: Few Clouds
Visibility: 10 miles , 16 km
Cloud details: Few Clouds 4500 ft
2019/12/07 16:53 KFRG 071653Z 35009KT 320V030 10SM FEW045 03/M08 A3034 RMK AO2 SLP276 T00331083
KISP - , , USA
Distance from station: ESE 14mi, 23km
Updated: 12/07/2019 11:56am
Partly cloudy
Partly cloudy
 Wind from NW
Wind: NW 14 mph , 22 km/h
Temperature: 37°F , 3°C
Wind Chill: 28°F , -2°C
Dew Point: 18°F , -8°C
Humidity: 45%
Barometer: 30.33 inHg , 1027.1 hPa
Clouds: Partly cloudy
Visibility: 10 miles , 16 km
Cloud details: Few Clouds 5000 ft
Partly cloudy 25000 ft
2019/12/07 16:56 KISP 071656Z 32012KT 10SM FEW050 SCT250 03/M08 A3033 RMK AO2 SLP272 T00331078
 
KBDR - , , USA
Distance from station: NNE 21mi, 34km
Updated: 12/07/2019 11:52am
Partly cloudy
Partly cloudy
 Wind from NNW
Wind: NNW 10 mph , 17 km/h
Temperature: 37°F , 3°C
Wind Chill: 30°F , -1°C
Dew Point: 18°F , -8°C
Humidity: 45%
Barometer: 30.34 inHg , 1027.4 hPa
Clouds: Partly cloudy
Visibility: 10 miles , 16 km
Cloud details: Partly cloudy 4300 ft
2019/12/07 16:52 KBDR 071652Z 33009KT 300V020 10SM SCT043 03/M08 A3034 RMK AO2 SLP273 T00331078
KHPN - , , USA
Distance from station: WNW 22mi, 35km
Updated: 12/07/2019 11:56am
Partly cloudy
Partly cloudy
 Wind from NW
Wind: NW 14 mph , 22 km/h
Temperature: 36°F , 2°C
Wind Chill: 27°F , -3°C
Dew Point: 16°F , -9°C
Humidity: 44%
Barometer: 30.32 inHg , 1026.8 hPa
Clouds: Partly cloudy
Visibility: 10 miles , 16 km
Cloud details: Partly cloudy 4000 ft
2019/12/07 16:56 KHPN 071656Z 32012KT 10SM SCT040 02/M09 A3032 RMK AO2 SLP275 T00221089
 
KHWV - , , USA
Distance from station: ESE 26mi, 41km
Updated: 12/07/2019 11:56am
Clear
Clear
 Wind from NW
Wind: NW 12 mph , 19 km/h
Temperature: 39°F , 4°C
Wind Chill: 32°F , 0°C
Dew Point: 19°F , -7°C
Humidity: 45%
Barometer: 30.34 inHg , 1027.4 hPa
Clouds: Clear
Visibility: 10 miles , 16 km
2019/12/07 16:56 KHWV 071656Z AUTO 32010KT 10SM CLR 04/M07 A3034 RMK AO2 SLP272 T00391072 TSNO
KJFK - , , USA
Distance from station: SW 29mi, 46km
Updated: 12/07/2019 11:51am
Partly cloudy
Partly cloudy
 Wind from WNW
Wind: WNW 16 mph , 26 km/h
Temperature: 39°F , 4°C
Wind Chill: 30°F , -1°C
Dew Point: 18°F , -8°C
Humidity: 42%
Barometer: 30.37 inHg , 1028.4 hPa
Clouds: Partly cloudy
Visibility: 10 miles , 16 km
Cloud details: Few Clouds 5000 ft
Partly cloudy 25000 ft
2019/12/07 16:51 KJFK 071651Z 30014KT 10SM FEW050 SCT250 04/M08 A3037 RMK AO2 SLP283 T00391078 $
 
KLGA - , , USA
Distance from station: WSW 29mi, 47km
Updated: 12/07/2019 11:51am
Partly cloudy
Partly cloudy
 Wind from NW
Wind: NW 17 mph , 28 km/h
Temperature: 37°F , 3°C
Wind Chill: 27°F , -3°C
Dew Point: 16°F , -9°C
Humidity: 41%
Barometer: 30.36 inHg , 1028.1 hPa
Clouds: Partly cloudy
Visibility: 10 miles , 16 km
Cloud details: Few Clouds 4500 ft
Few Clouds 20000 ft
Partly cloudy 25000 ft
2019/12/07 16:51 KLGA 071651Z 31015KT 10SM FEW045 FEW200 SCT250 03/M09 A3036 RMK AO2 SLP280 T00281094 $